Time;durP1;ratioP1;P1;durP2;ratioP2;P2;SDS_P1;SDS_P2;PMS_P1;PMS_P2;Temp;Humidity;BMP_temperature;BMP_pressure;BME280_temperature;BME280_humidity;BME280_pressure;Samples;Min_cycle;Max_cycle;Signal;HPM_P1;HPM_P2
2021/09/23 00:02:24;;;;;;;7.80;4.30;;;12.90;99.90;;;;;;5036684;28;20456;-43
2021/09/23 00:04:51;;;;;;;6.73;5.13;;;12.90;99.90;;;;;;5036275;28;20447;-43
2021/09/23 00:07:18;;;;;;;9.47;4.50;;;12.80;99.90;;;;;;5036865;28;20507;-48
2021/09/23 00:09:45;;;;;;;7.50;5.80;;;12.80;99.90;;;;;;5036482;28;20547;-43
2021/09/23 00:12:12;;;;;;;9.17;5.03;;;12.80;99.90;;;;;;5036952;28;20460;-45
2021/09/23 00:14:41;;;;;;;8.87;5.40;;;12.80;99.90;;;;;;5037021;28;20918;-45
2021/09/23 00:17:09;;;;;;;10.40;4.50;;;12.80;99.90;;;;;;5034778;28;20510;-42
2021/09/23 00:19:37;;;;;;;12.47;4.97;;;12.70;99.90;;;;;;5034329;28;20506;-44
2021/09/23 00:22:04;;;;;;;9.73;4.87;;;12.70;99.90;;;;;;5034617;28;20513;-43
2021/09/23 00:24:30;;;;;;;8.63;5.30;;;12.70;99.90;;;;;;5034751;28;20448;-47
2021/09/23 00:26:57;;;;;;;15.83;6.00;;;12.70;99.90;;;;;;5034755;28;20526;-49
2021/09/23 00:29:23;;;;;;;7.27;4.97;;;12.60;99.90;;;;;;5034170;28;20550;-46
2021/09/23 00:31:50;;;;;;;7.50;5.30;;;12.60;99.90;;;;;;5033851;28;20448;-43
2021/09/23 00:34:17;;;;;;;7.70;5.03;;;12.70;99.90;;;;;;5033996;28;20828;-46
2021/09/23 00:36:45;;;;;;;6.60;4.97;;;12.70;99.90;;;;;;5034390;28;20456;-43
2021/09/23 00:39:11;;;;;;;8.33;5.23;;;12.70;99.90;;;;;;5034440;28;20440;-52
2021/09/23 00:41:38;;;;;;;8.93;4.83;;;12.70;99.90;;;;;;5034256;28;20452;-46
2021/09/23 00:44:13;;;;;;;8.90;5.83;;;12.70;99.90;;;;;;5034095;28;20460;-47
2021/09/23 00:46:40;;;;;;;6.60;4.60;;;12.60;99.90;;;;;;5034490;28;20432;-46
2021/09/23 00:49:07;;;;;;;9.53;5.30;;;12.60;99.90;;;;;;5036871;28;20444;-48
2021/09/23 00:51:34;;;;;;;8.83;6.10;;;12.70;99.90;;;;;;5037800;28;20448;-49
2021/09/23 00:54:02;;;;;;;11.20;6.30;;;12.60;99.90;;;;;;5037462;28;20933;-44
2021/09/23 00:56:29;;;;;;;12.87;6.13;;;12.60;99.90;;;;;;5037608;28;20486;-47
2021/09/23 00:58:57;;;;;;;8.90;6.30;;;12.70;99.90;;;;;;5037572;28;20444;-44
2021/09/23 01:01:24;;;;;;;8.63;5.87;;;12.70;99.90;;;;;;5037464;28;20460;-43
2021/09/23 01:03:50;;;;;;;11.03;6.00;;;12.60;99.90;;;;;;5037126;28;20463;-48
2021/09/23 01:06:17;;;;;;;9.20;6.17;;;12.60;99.90;;;;;;5037326;28;20452;-44
2021/09/23 01:08:54;;;;;;;11.40;6.50;;;12.60;99.90;;;;;;5037791;28;20476;-44
2021/09/23 01:11:23;;;;;;;12.03;7.03;;;12.60;99.90;;;;;;5037890;28;20475;-51
2021/09/23 01:13:49;;;;;;;11.23;7.50;;;12.60;99.90;;;;;;5037605;28;20440;-43
2021/09/23 01:16:16;;;;;;;8.20;5.73;;;12.60;99.90;;;;;;5037825;28;20444;-44
2021/09/23 01:18:46;;;;;;;7.97;5.33;;;12.60;99.90;;;;;;5037416;28;20506;-46
2021/09/23 01:21:14;;;;;;;11.30;6.67;;;12.60;99.90;;;;;;5037224;28;20498;-46
2021/09/23 01:23:43;;;;;;;12.03;7.40;;;12.50;99.90;;;;;;5037467;28;20840;-50
2021/09/23 01:26:12;;;;;;;10.27;7.23;;;12.50;99.90;;;;;;5037207;28;20453;-47
2021/09/23 01:28:40;;;;;;;9.47;6.50;;;12.50;99.90;;;;;;5037252;28;20502;-46
2021/09/23 01:31:07;;;;;;;14.03;6.97;;;12.50;99.90;;;;;;5036822;28;20541;-44
2021/09/23 01:33:34;;;;;;;12.07;7.80;;;12.50;99.90;;;;;;5037072;28;20971;-46
2021/09/23 01:36:01;;;;;;;13.20;6.80;;;12.40;99.90;;;;;;5036884;28;20436;-48
2021/09/23 01:38:30;;;;;;;16.40;7.77;;;12.40;99.90;;;;;;5036905;28;20460;-44
2021/09/23 01:40:57;;;;;;;14.03;7.63;;;12.40;99.90;;;;;;5036781;28;20502;-44
2021/09/23 01:43:24;;;;;;;11.53;7.50;;;12.40;99.90;;;;;;5036672;28;20824;-46
2021/09/23 01:45:51;;;;;;;17.83;8.70;;;12.40;99.90;;;;;;5036988;28;20452;-43
2021/09/23 01:48:18;;;;;;;15.40;7.70;;;12.40;99.90;;;;;;5037322;28;20448;-49
2021/09/23 01:50:44;;;;;;;12.57;7.43;;;12.40;99.90;;;;;;5036786;28;20492;-48
2021/09/23 01:53:11;;;;;;;14.53;8.50;;;12.40;99.90;;;;;;5036271;28;20452;-50
2021/09/23 01:55:39;;;;;;;10.77;8.30;;;12.40;99.90;;;;;;5036268;28;20447;-47
2021/09/23 01:58:06;;;;;;;13.20;8.20;;;12.40;99.90;;;;;;5036715;28;20444;-46
2021/09/23 02:00:32;;;;;;;10.67;6.37;;;12.40;99.90;;;;;;5036151;28;20459;-46
2021/09/23 02:02:59;;;;;;;15.70;7.80;;;12.50;99.90;;;;;;5036689;28;20493;-44
2021/09/23 02:05:26;;;;;;;16.10;8.90;;;12.40;99.90;;;;;;5036478;28;20917;-48
2021/09/23 02:07:53;;;;;;;8.80;6.87;;;12.40;99.90;;;;;;5036497;28;20440;-43
2021/09/23 02:10:19;;;;;;;12.33;7.80;;;12.40;99.90;;;;;;5036119;28;20541;-45
2021/09/23 02:12:49;;;;;;;18.40;8.93;;;12.40;99.90;;;;;;5036170;28;20444;-46
2021/09/23 02:15:16;;;;;;;15.17;9.73;;;12.40;99.90;;;;;;5036128;28;20514;-49
2021/09/23 02:17:44;;;;;;;13.53;8.40;;;12.30;99.90;;;;;;5036530;28;20459;-47
2021/09/23 02:20:12;;;;;;;17.77;9.47;;;12.30;99.90;;;;;;5036114;28;20491;-47
2021/09/23 02:22:38;;;;;;;14.00;8.87;;;12.30;99.90;;;;;;5036501;28;20979;-48
2021/09/23 02:25:06;;;;;;;10.40;7.63;;;12.20;99.90;;;;;;5035786;28;20967;-47
2021/09/23 02:27:33;;;;;;;16.20;8.13;;;12.20;99.90;;;;;;5036115;28;20951;-46
2021/09/23 02:30:03;;;;;;;16.70;8.67;;;12.20;99.90;;;;;;5035996;28;20480;-48
2021/09/23 02:32:30;;;;;;;15.90;9.33;;;12.20;99.90;;;;;;5035888;28;20452;-47
2021/09/23 02:34:59;;;;;;;12.67;9.07;;;12.20;99.90;;;;;;5035946;28;20514;-45
2021/09/23 02:37:26;;;;;;;14.30;9.70;;;12.20;99.90;;;;;;5035730;28;20510;-46
2021/09/23 02:39:53;;;;;;;16.80;9.43;;;12.20;99.90;;;;;;5036069;28;20444;-48
2021/09/23 02:42:20;;;;;;;14.37;8.70;;;12.10;99.90;;;;;;5035778;28;20495;-43
2021/09/23 02:44:47;;;;;;;20.50;9.77;;;12.10;99.90;;;;;;5035981;28;20498;-46
2021/09/23 02:47:15;;;;;;;19.17;9.97;;;12.10;99.90;;;;;;5035721;28;20451;-46
2021/09/23 02:49:41;;;;;;;18.23;11.17;;;12.10;99.90;;;;;;5035811;28;20839;-44
2021/09/23 02:52:08;;;;;;;13.13;9.80;;;12.10;99.90;;;;;;5035696;28;20464;-50
2021/09/23 02:54:35;;;;;;;17.23;10.17;;;12.10;99.90;;;;;;5036066;28;20639;-51
2021/09/23 02:57:01;;;;;;;20.17;10.00;;;12.10;99.90;;;;;;5037148;28;20456;-47
2021/09/23 02:59:28;;;;;;;16.97;10.23;;;12.10;99.90;;;;;;5036607;28;20456;-48
2021/09/23 03:01:55;;;;;;;16.13;8.83;;;12.00;99.90;;;;;;5040205;28;20514;-46
2021/09/23 03:04:23;;;;;;;16.70;9.23;;;12.00;99.90;;;;;;5042185;28;20448;-46
2021/09/23 03:06:50;;;;;;;16.93;9.67;;;12.00;99.90;;;;;;5042311;28;20448;-42
2021/09/23 03:09:16;;;;;;;18.77;10.40;;;12.00;99.90;;;;;;5043813;28;20472;-45
2021/09/23 03:11:45;;;;;;;15.73;10.40;;;12.00;99.90;;;;;;5042254;28;20488;-42
2021/09/23 03:14:12;;;;;;;17.20;11.23;;;11.90;99.90;;;;;;5035487;28;20538;-48
2021/09/23 03:16:39;;;;;;;17.90;10.90;;;11.90;99.90;;;;;;5037468;28;20747;-47
2021/09/23 03:19:06;;;;;;;16.93;10.17;;;11.90;99.90;;;;;;5037688;28;20450;-45
2021/09/23 03:21:38;;;;;;;17.37;10.33;;;11.90;99.90;;;;;;5041682;28;20448;-51
2021/09/23 03:24:05;;;;;;;13.90;10.33;;;11.90;99.90;;;;;;5041137;28;20745;-44
2021/09/23 03:26:31;;;;;;;23.10;10.43;;;11.90;99.90;;;;;;5040595;28;21006;-47
2021/09/23 03:28:58;;;;;;;20.60;10.63;;;11.90;99.90;;;;;;5040933;28;20478;-44
2021/09/23 03:31:25;;;;;;;18.90;10.10;;;11.90;99.90;;;;;;5040571;28;20479;-47
2021/09/23 03:33:52;;;;;;;18.80;9.47;;;11.90;99.90;;;;;;5040768;28;20790;-46
2021/09/23 03:36:18;;;;;;;16.57;9.70;;;11.90;99.90;;;;;;5041271;28;20961;-46
2021/09/23 03:38:46;;;;;;;18.33;11.20;;;11.90;99.90;;;;;;5041111;28;20452;-45
2021/09/23 03:41:13;;;;;;;16.57;11.50;;;11.90;99.90;;;;;;5041001;28;20471;-44
2021/09/23 03:43:40;;;;;;;17.57;11.37;;;11.90;99.90;;;;;;5041587;28;20444;-43
2021/09/23 03:46:08;;;;;;;18.70;10.30;;;11.90;99.90;;;;;;5042229;28;20448;-43
2021/09/23 03:48:38;;;;;;;17.77;10.53;;;11.90;99.90;;;;;;5037651;28;20530;-44
2021/09/23 03:51:04;;;;;;;17.23;11.20;;;11.90;99.90;;;;;;5037346;28;20507;-45
2021/09/23 03:53:33;;;;;;;20.90;11.60;;;11.80;99.90;;;;;;5037360;28;20440;-45
2021/09/23 03:56:01;;;;;;;26.63;12.80;;;11.80;99.90;;;;;;5037427;28;20930;-43
2021/09/23 03:58:28;;;;;;;20.23;11.60;;;11.70;99.90;;;;;;5037024;28;20452;-46
2021/09/23 04:00:54;;;;;;;19.57;11.57;;;11.70;99.90;;;;;;5036839;28;20444;-46
2021/09/23 04:03:21;;;;;;;15.70;10.20;;;11.70;99.90;;;;;;5038625;28;20545;-43
2021/09/23 04:05:47;;;;;;;21.43;11.37;;;11.70;99.90;;;;;;5040035;28;20460;-42
2021/09/23 04:08:14;;;;;;;21.90;12.27;;;11.70;99.90;;;;;;5036509;28;20448;-47
2021/09/23 04:10:41;;;;;;;21.90;11.83;;;11.70;99.90;;;;;;5037773;28;20464;-42
2021/09/23 04:13:09;;;;;;;22.13;12.87;;;11.70;99.90;;;;;;5037680;28;20460;-43
2021/09/23 04:15:37;;;;;;;20.03;13.23;;;11.70;99.90;;;;;;5037680;28;20460;-49
2021/09/23 04:18:04;;;;;;;21.07;11.40;;;11.70;99.90;;;;;;5037065;28;20769;-46
2021/09/23 04:20:31;;;;;;;25.37;13.77;;;11.70;99.90;;;;;;5036792;28;21216;-44
2021/09/23 04:22:58;;;;;;;29.20;13.03;;;11.70;99.90;;;;;;5038143;28;20448;-45
2021/09/23 04:25:24;;;;;;;17.93;10.93;;;11.70;99.90;;;;;;5040863;28;20515;-49
2021/09/23 04:27:52;;;;;;;26.80;13.07;;;11.70;99.90;;;;;;5040873;28;20456;-44
2021/09/23 04:30:20;;;;;;;20.80;10.87;;;11.70;99.90;;;;;;5040274;28;20528;-47
2021/09/23 04:32:46;;;;;;;23.13;12.20;;;11.70;99.90;;;;;;5038934;28;20447;-47
2021/09/23 04:35:13;;;;;;;21.80;11.60;;;11.70;99.90;;;;;;5040361;28;20443;-51
2021/09/23 04:37:40;;;;;;;28.87;12.97;;;11.70;99.90;;;;;;5040040;28;20456;-47
2021/09/23 04:40:08;;;;;;;19.87;12.70;;;11.70;99.90;;;;;;5039715;28;20505;-44
2021/09/23 04:42:34;;;;;;;20.13;11.50;;;11.70;99.90;;;;;;5040131;28;20448;-45
2021/09/23 04:45:05;;;;;;;28.17;12.93;;;11.70;99.90;;;;;;5040224;28;20455;-47
2021/09/23 04:47:33;;;;;;;27.53;13.37;;;11.80;99.90;;;;;;5039782;28;20448;-49
2021/09/23 04:49:59;;;;;;;22.63;13.30;;;11.80;99.90;;;;;;5039763;28;20522;-46
2021/09/23 04:52:26;;;;;;;31.53;15.00;;;11.80;99.90;;;;;;5039411;28;20549;-47
2021/09/23 04:54:53;;;;;;;19.30;12.23;;;11.90;99.90;;;;;;5040021;28;20464;-48
2021/09/23 04:57:19;;;;;;;21.80;12.43;;;11.90;99.90;;;;;;5039964;28;20839;-47
2021/09/23 04:59:46;;;;;;;24.53;13.97;;;11.90;99.90;;;;;;5039644;28;20788;-46
2021/09/23 05:02:13;;;;;;;28.03;13.03;;;11.90;99.90;;;;;;5039609;28;20457;-50
2021/09/23 05:04:44;;;;;;;23.23;14.23;;;11.90;99.90;;;;;;5039431;28;20444;-47
2021/09/23 05:07:11;;;;;;;27.70;14.40;;;12.00;99.90;;;;;;5039258;28;20448;-47
2021/09/23 05:09:37;;;;;;;22.73;14.10;;;12.00;99.90;;;;;;5039266;28;20545;-44
2021/09/23 05:12:05;;;;;;;23.23;13.00;;;12.00;99.90;;;;;;5039408;28;20487;-45
2021/09/23 05:14:32;;;;;;;28.80;16.67;;;12.00;99.90;;;;;;5039837;28;20448;-46
2021/09/23 05:17:00;;;;;;;19.37;12.23;;;11.90;99.90;;;;;;5039722;28;20447;-49
2021/09/23 05:19:26;;;;;;;23.30;12.50;;;11.90;99.90;;;;;;5039367;28;20789;-45
2021/09/23 05:21:56;;;;;;;21.77;12.97;;;11.90;99.90;;;;;;5039573;28;20513;-43
2021/09/23 05:24:23;;;;;;;25.07;12.80;;;11.90;99.90;;;;;;5040671;28;20424;-43
2021/09/23 05:26:50;;;;;;;27.40;14.10;;;11.90;99.90;;;;;;5040074;28;20946;-48
2021/09/23 05:29:17;;;;;;;21.73;13.83;;;11.90;99.90;;;;;;5039411;28;20478;-51
2021/09/23 05:31:43;;;;;;;24.60;15.57;;;11.90;99.90;;;;;;5039326;28;20480;-46
2021/09/23 05:34:10;;;;;;;27.27;15.07;;;12.00;99.90;;;;;;5038136;28;20448;-47
2021/09/23 05:36:37;;;;;;;27.73;13.83;;;12.00;99.90;;;;;;5038939;28;20448;-44
2021/09/23 05:39:05;;;;;;;30.33;14.30;;;12.00;99.90;;;;;;5038643;28;20483;-45
2021/09/23 05:41:33;;;;;;;27.60;13.50;;;12.10;99.90;;;;;;5039111;28;20913;-46
2021/09/23 05:44:00;;;;;;;28.10;14.70;;;12.10;99.90;;;;;;5038735;28;20459;-44
2021/09/23 05:46:27;;;;;;;25.20;15.07;;;12.10;99.90;;;;;;5039910;28;20904;-44
2021/09/23 05:48:54;;;;;;;25.33;13.80;;;12.10;99.90;;;;;;5039242;28;20452;-44
2021/09/23 05:51:20;;;;;;;28.17;14.77;;;12.10;99.90;;;;;;5038777;28;20484;-45
2021/09/23 05:53:47;;;;;;;29.33;15.40;;;12.10;99.90;;;;;;5039361;28;20783;-45
2021/09/23 05:56:15;;;;;;;24.67;14.43;;;12.20;99.90;;;;;;5038524;28;20517;-47
2021/09/23 05:58:42;;;;;;;25.43;13.87;;;12.20;99.90;;;;;;5038089;28;20452;-43
2021/09/23 06:01:08;;;;;;;28.57;14.63;;;12.30;99.90;;;;;;5037746;28;20917;-49
2021/09/23 06:03:35;;;;;;;21.53;13.67;;;12.30;99.90;;;;;;5037842;28;20456;-46
2021/09/23 06:06:02;;;;;;;23.47;11.80;;;12.30;99.90;;;;;;5037608;28;20513;-49
2021/09/23 06:08:28;;;;;;;22.53;13.70;;;12.40;99.90;;;;;;5038000;28;20538;-44
2021/09/23 06:10:56;;;;;;;26.33;14.53;;;12.50;99.90;;;;;;5037455;28;20542;-50
2021/09/23 06:13:24;;;;;;;20.97;12.70;;;12.50;99.90;;;;;;5038041;28;20816;-48
2021/09/23 06:15:51;;;;;;;25.57;13.30;;;12.60;99.90;;;;;;5037675;28;20506;-45
2021/09/23 06:18:17;;;;;;;24.50;14.20;;;12.70;99.90;;;;;;5037812;28;20502;-49
2021/09/23 06:20:47;;;;;;;24.20;15.20;;;12.80;99.90;;;;;;5036684;28;20482;-44
2021/09/23 06:23:15;;;;;;;29.20;14.80;;;12.80;99.90;;;;;;5036014;28;20892;-45
2021/09/23 06:25:42;;;;;;;22.17;13.30;;;12.90;99.90;;;;;;5036415;28;20784;-47
2021/09/23 06:28:10;;;;;;;27.30;15.97;;;12.90;99.90;;;;;;5041893;28;20459;-46
2021/09/23 06:30:39;;;;;;;24.50;14.40;;;13.00;99.90;;;;;;5039259;28;20523;-47
2021/09/23 06:33:06;;;;;;;27.33;15.27;;;13.10;99.90;;;;;;5038804;28;20537;-44
2021/09/23 06:35:32;;;;;;;34.90;15.10;;;13.10;99.90;;;;;;5038462;28;20990;-44
2021/09/23 06:37:59;;;;;;;27.57;14.97;;;13.30;99.90;;;;;;5038264;28;20436;-44
2021/09/23 06:40:26;;;;;;;31.40;14.67;;;13.40;99.90;;;;;;5038182;28;20482;-45
2021/09/23 06:42:53;;;;;;;27.97;14.70;;;13.40;99.90;;;;;;5036818;28;20452;-48
2021/09/23 06:45:20;;;;;;;21.97;14.80;;;13.50;99.90;;;;;;5036258;28;20433;-46
2021/09/23 06:47:48;;;;;;;30.87;15.67;;;13.50;99.90;;;;;;5036285;28;20452;-45
2021/09/23 06:50:15;;;;;;;24.87;15.47;;;13.60;99.90;;;;;;5036708;28;20460;-47
2021/09/23 06:52:42;;;;;;;26.17;14.90;;;13.60;99.90;;;;;;5036639;28;20491;-45
2021/09/23 06:55:10;;;;;;;21.87;13.57;;;13.70;99.90;;;;;;5039352;28;20432;-45
2021/09/23 06:57:36;;;;;;;26.40;16.30;;;13.70;99.90;;;;;;5037781;28;20488;-47
2021/09/23 07:00:05;;;;;;;26.27;14.47;;;13.80;99.90;;;;;;5038764;28;20517;-46
2021/09/23 07:02:32;;;;;;;28.17;17.13;;;13.80;99.90;;;;;;5029817;28;20438;-50
2021/09/23 07:05:02;;;;;;;27.43;15.80;;;13.90;99.90;;;;;;5031165;28;20445;-47
2021/09/23 07:07:28;;;;;;;25.27;16.47;;;13.90;99.90;;;;;;5038879;28;20452;-47
2021/09/23 07:09:55;;;;;;;27.03;14.47;;;14.10;99.90;;;;;;5037895;28;20861;-48
2021/09/23 07:12:22;;;;;;;24.13;16.67;;;14.20;99.90;;;;;;5029287;28;20481;-44
2021/09/23 07:14:48;;;;;;;29.50;17.60;;;14.30;99.90;;;;;;5027990;28;20471;-43
2021/09/23 07:17:15;;;;;;;33.40;17.87;;;14.20;99.90;;;;;;5021540;28;20511;-48
2021/09/23 07:19:42;;;;;;;30.70;17.50;;;14.20;99.90;;;;;;5032933;28;20452;-50
2021/09/23 07:22:10;;;;;;;29.17;17.03;;;14.30;99.90;;;;;;5022097;28;20712;-46
2021/09/23 07:24:37;;;;;;;23.07;14.30;;;14.30;99.90;;;;;;5026496;28;20751;-47
2021/09/23 07:27:05;;;;;;;34.87;16.77;;;14.40;99.90;;;;;;5031566;28;20449;-48
2021/09/23 07:29:33;;;;;;;27.07;16.40;;;14.40;99.90;;;;;;5021026;28;20528;-50
2021/09/23 07:31:59;;;;;;;29.90;15.07;;;14.50;99.90;;;;;;5036293;28;20555;-45
2021/09/23 07:34:26;;;;;;;26.00;16.13;;;14.50;99.90;;;;;;5026855;28;20494;-44
2021/09/23 07:36:53;;;;;;;29.30;14.77;;;14.60;99.90;;;;;;5035908;28;20444;-48
2021/09/23 07:39:21;;;;;;;29.63;16.50;;;14.60;99.90;;;;;;5030890;28;21048;-46
2021/09/23 07:41:48;;;;;;;31.23;15.50;;;14.80;99.90;;;;;;5039112;28;20451;-47
2021/09/23 07:44:15;;;;;;;26.87;16.30;;;14.90;99.90;;;;;;5036476;28;20514;-45
2021/09/23 07:46:43;;;;;;;25.97;15.80;;;15.00;99.90;;;;;;5040225;28;20456;-47
2021/09/23 07:49:10;;;;;;;24.40;14.60;;;15.10;99.90;;;;;;5035568;28;20447;-48
2021/09/23 07:51:37;;;;;;;32.43;16.40;;;15.30;99.90;;;;;;5040333;28;20483;-51
2021/09/23 07:54:04;;;;;;;35.63;15.87;;;15.50;99.90;;;;;;5037827;28;20452;-46
2021/09/23 07:56:32;;;;;;;25.40;16.23;;;15.60;99.90;;;;;;5037095;28;20440;-45
2021/09/23 07:58:59;;;;;;;31.50;15.10;;;15.70;99.90;;;;;;5038796;28;20444;-47
2021/09/23 08:01:25;;;;;;;24.20;15.17;;;15.80;99.90;;;;;;5040434;28;20613;-47
2021/09/23 08:03:55;;;;;;;25.40;14.30;;;15.90;99.90;;;;;;5040631;28;20498;-48
2021/09/23 08:06:22;;;;;;;25.03;14.93;;;16.10;99.90;;;;;;5038788;28;20477;-51
2021/09/23 08:08:49;;;;;;;21.87;12.80;;;16.20;99.90;;;;;;5038678;28;20983;-50
2021/09/23 08:11:16;;;;;;;28.70;15.10;;;16.40;99.90;;;;;;5041390;28;20448;-50
2021/09/23 08:13:44;;;;;;;25.27;13.73;;;16.50;99.90;;;;;;5045623;28;20479;-50
2021/09/23 08:16:10;;;;;;;24.10;13.40;;;16.70;99.90;;;;;;5048312;28;20889;-54
2021/09/23 08:18:37;;;;;;;21.73;13.20;;;17.00;99.90;;;;;;5040919;28;20452;-51
2021/09/23 08:21:04;;;;;;;21.13;12.67;;;17.30;99.90;;;;;;5038697;28;20433;-51
2021/09/23 08:23:30;;;;;;;21.60;11.10;;;17.80;99.90;;;;;;5039590;28;20435;-47
2021/09/23 08:25:57;;;;;;;19.57;11.53;;;18.30;99.90;;;;;;5037258;28;20455;-50
2021/09/23 08:28:26;;;;;;;23.27;11.07;;;18.80;99.90;;;;;;5037088;28;20444;-51
2021/09/23 08:30:55;;;;;;;18.83;11.40;;;19.10;99.90;;;;;;5034325;28;20497;-46
2021/09/23 08:33:23;;;;;;;18.90;12.90;;;19.10;99.90;;;;;;5036346;28;20583;-52
2021/09/23 08:35:50;;;;;;;21.87;10.90;;;18.90;99.90;;;;;;5039010;28;20485;-50
2021/09/23 08:38:18;;;;;;;14.93;10.67;;;18.60;99.90;;;;;;5038731;28;20494;-48
2021/09/23 08:40:45;;;;;;;17.97;12.00;;;18.30;99.90;;;;;;5037160;28;20472;-49
2021/09/23 08:43:12;;;;;;;16.37;10.50;;;18.10;99.90;;;;;;5037342;28;20455;-50
2021/09/23 08:45:38;;;;;;;19.57;11.37;;;18.10;99.90;;;;;;5037112;28;20444;-48
2021/09/23 08:48:08;;;;;;;16.90;10.10;;;18.00;99.90;;;;;;5037388;28;20436;-48
2021/09/23 08:50:35;;;;;;;12.90;9.23;;;18.00;99.90;;;;;;5037265;28;20455;-46
2021/09/23 08:53:02;;;;;;;15.40;9.80;;;17.90;99.90;;;;;;5036990;28;20522;-44
2021/09/23 08:55:30;;;;;;;15.47;9.73;;;17.90;99.90;;;;;;5037516;28;20444;-49
2021/09/23 08:58:00;;;;;;;18.27;9.93;;;17.90;99.90;;;;;;5038725;28;20444;-46
2021/09/23 09:00:27;;;;;;;12.53;8.73;;;18.00;99.90;;;;;;5038904;28;20448;-42
2021/09/23 09:03:01;;;;;;;19.37;10.50;;;18.10;99.90;;;;;;5036989;28;20445;-43
2021/09/23 09:05:30;;;;;;;15.10;9.37;;;18.20;99.90;;;;;;5038815;28;20455;-43
2021/09/23 09:08:02;;;;;;;18.90;9.17;;;18.40;99.90;;;;;;5039513;28;20490;-42
2021/09/23 09:10:29;;;;;;;12.73;8.03;;;18.70;99.90;;;;;;5039302;28;20548;-44
2021/09/23 09:12:56;;;;;;;13.37;9.43;;;19.30;99.90;;;;;;5038642;28;20480;-43
2021/09/23 09:15:33;;;;;;;17.23;8.40;;;20.10;99.90;;;;;;5035740;28;20913;-46
2021/09/23 09:18:12;;;;;;;14.83;8.33;;;20.40;99.90;;;;;;5037944;28;20448;-44
2021/09/23 09:20:52;;;;;;;16.10;9.80;;;20.50;99.90;;;;;;5037685;28;20436;-44
2021/09/23 09:23:18;;;;;;;14.63;9.90;;;20.30;99.90;;;;;;5036451;28;20444;-43
2021/09/23 09:25:45;;;;;;;12.33;8.30;;;20.10;99.90;;;;;;5036826;28;20444;-43
2021/09/23 09:28:12;;;;;;;21.90;8.80;;;19.90;99.90;;;;;;5038302;28;20529;-43
2021/09/23 09:30:39;;;;;;;13.17;8.03;;;20.00;99.90;;;;;;5037781;28;20461;-47
2021/09/23 09:33:06;;;;;;;12.30;7.80;;;20.10;99.90;;;;;;5041686;28;20491;-43
2021/09/23 09:35:34;;;;;;;12.40;7.73;;;20.20;99.90;;;;;;5056268;28;20435;-42
2021/09/23 09:38:04;;;;;;;13.13;8.00;;;20.40;99.90;;;;;;5055467;28;20509;-46
2021/09/23 09:40:34;;;;;;;13.50;7.90;;;20.60;99.90;;;;;;5037242;28;20448;-44
2021/09/23 09:43:04;;;;;;;13.23;8.37;;;20.80;99.90;;;;;;5035389;28;20436;-42
2021/09/23 09:45:31;;;;;;;21.00;9.27;;;20.90;99.90;;;;;;5037988;28;20449;-44
2021/09/23 09:47:59;;;;;;;14.83;7.97;;;21.10;99.90;;;;;;5037702;28;20452;-43
2021/09/23 09:50:27;;;;;;;9.50;7.70;;;21.20;99.90;;;;;;5036903;28;20506;-44
2021/09/23 09:53:00;;;;;;;12.10;8.50;;;21.50;99.90;;;;;;5036847;28;20530;-44
2021/09/23 09:55:29;;;;;;;12.33;7.27;;;22.00;99.90;;;;;;5036130;28;20464;-43
2021/09/23 09:57:56;;;;;;;10.13;7.37;;;22.30;99.90;;;;;;5034906;28;20456;-46
2021/09/23 10:00:25;;;;;;;10.77;7.50;;;22.50;99.90;;;;;;5036091;28;20800;-42
2021/09/23 10:02:52;;;;;;;11.53;8.03;;;22.30;99.90;;;;;;5035861;28;20464;-46
2021/09/23 10:05:21;;;;;;;16.33;7.20;;;22.30;99.90;;;;;;5036499;28;20790;-45
2021/09/23 10:07:49;;;;;;;10.73;7.43;;;22.30;99.90;;;;;;5036328;28;20436;-46
2021/09/23 10:10:18;;;;;;;11.03;6.80;;;22.00;99.90;;;;;;5035759;28;20976;-46
2021/09/23 10:12:48;;;;;;;12.20;7.77;;;21.70;99.90;;;;;;5035801;28;20487;-46
2021/09/23 10:15:17;;;;;;;8.50;6.50;;;22.00;99.90;;;;;;5035682;28;20448;-44
2021/09/23 10:17:45;;;;;;;11.93;7.10;;;22.30;99.90;;;;;;5035441;28;20448;-44
2021/09/23 10:20:14;;;;;;;12.97;7.87;;;22.50;99.90;;;;;;5035113;28;20468;-50
2021/09/23 10:22:42;;;;;;;10.90;7.10;;;22.80;99.90;;;;;;5035878;28;20467;-47
2021/09/23 10:25:12;;;;;;;12.07;7.20;;;22.50;99.90;;;;;;5036413;28;20513;-45
2021/09/23 10:27:59;;;;;;;13.67;8.30;;;22.20;99.90;;;;;;5036927;28;20455;-44
2021/09/23 10:30:29;;;;;;;11.10;7.60;;;22.00;99.90;;;;;;5035714;28;20440;-45
2021/09/23 10:33:01;;;;;;;13.93;7.80;;;21.60;99.90;;;;;;5034916;28;20480;-46
2021/09/23 10:35:29;;;;;;;12.83;7.77;;;21.50;99.90;;;;;;5036414;28;20453;-46
2021/09/23 10:37:58;;;;;;;9.30;6.50;;;21.20;99.90;;;;;;5035096;28;20790;-44
2021/09/23 10:40:26;;;;;;;13.00;7.73;;;21.00;99.90;;;;;;5034967;28;20836;-45
2021/09/23 10:42:58;;;;;;;10.20;7.77;;;20.80;99.90;;;;;;5036073;28;20769;-46
2021/09/23 10:45:28;;;;;;;10.40;7.40;;;20.70;99.90;;;;;;5035828;28;20466;-43
2021/09/23 10:47:58;;;;;;;12.60;6.47;;;20.60;99.90;;;;;;5035338;28;20452;-45
2021/09/23 10:50:28;;;;;;;13.57;8.50;;;20.50;99.90;;;;;;5034788;28;20452;-44
2021/09/23 10:52:56;;;;;;;10.20;6.60;;;20.50;99.90;;;;;;5034768;28;20484;-46
2021/09/23 10:55:25;;;;;;;7.77;5.90;;;20.50;99.90;;;;;;5034592;28;20855;-44
2021/09/23 10:57:52;;;;;;;8.73;6.60;;;20.40;99.90;;;;;;5034468;28;20520;-50
2021/09/23 11:00:23;;;;;;;12.37;5.90;;;20.20;99.90;;;;;;5034554;28;20452;-45
2021/09/23 11:02:52;;;;;;;11.83;5.57;;;20.20;99.90;;;;;;5034622;28;20441;-45
2021/09/23 11:05:21;;;;;;;8.57;5.63;;;20.20;99.90;;;;;;5034552;28;20456;-44
2021/09/23 11:07:49;;;;;;;7.23;5.60;;;20.20;99.90;;;;;;5034782;28;20819;-47
2021/09/23 11:10:17;;;;;;;9.87;5.10;;;20.10;99.90;;;;;;5034379;28;20476;-46
2021/09/23 11:12:45;;;;;;;11.23;5.33;;;20.20;99.90;;;;;;5034275;28;20484;-44
2021/09/23 11:15:14;;;;;;;11.70;4.80;;;20.30;99.90;;;;;;5033715;28;20815;-48
2021/09/23 11:17:43;;;;;;;11.60;5.57;;;20.40;99.90;;;;;;5033974;28;20448;-45
2021/09/23 11:20:13;;;;;;;7.80;4.93;;;20.30;99.90;;;;;;5034358;28;20506;-43
2021/09/23 11:22:42;;;;;;;7.50;4.90;;;20.30;99.90;;;;;;5034145;28;20440;-44
2021/09/23 11:25:11;;;;;;;7.00;4.80;;;20.20;99.90;;;;;;5034181;28;20478;-43
2021/09/23 11:27:39;;;;;;;6.43;4.27;;;20.20;99.90;;;;;;5033783;28;21024;-42
2021/09/23 11:30:09;;;;;;;6.00;4.27;;;20.10;99.90;;;;;;5033777;28;20455;-49
2021/09/23 11:32:48;;;;;;;8.27;4.73;;;20.20;99.90;;;;;;5033527;28;20479;-44
2021/09/23 11:35:18;;;;;;;7.43;4.63;;;20.20;99.90;;;;;;5034596;28;20502;-47
2021/09/23 11:37:45;;;;;;;5.63;4.00;;;20.30;99.90;;;;;;5034419;28;21083;-42
2021/09/23 11:40:13;;;;;;;8.30;4.20;;;20.40;99.90;;;;;;5034367;28;20947;-44
2021/09/23 11:42:44;;;;;;;5.27;4.13;;;20.40;99.90;;;;;;5033652;28;20440;-45
2021/09/23 11:45:14;;;;;;;5.20;4.00;;;20.30;99.90;;;;;;5033787;28;20444;-48
2021/09/23 11:47:49;;;;;;;9.80;4.00;;;20.20;99.90;;;;;;5034131;28;20539;-48
2021/09/23 11:50:30;;;;;;;4.93;3.20;;;20.30;99.90;;;;;;5034153;28;20505;-44
2021/09/23 11:52:59;;;;;;;4.17;3.00;;;20.30;99.90;;;;;;5034048;28;20540;-47
2021/09/23 11:55:26;;;;;;;6.87;3.47;;;20.20;99.90;;;;;;5033753;28;20507;-43
2021/09/23 11:58:04;;;;;;;5.40;4.10;;;20.20;99.90;;;;;;5033786;28;20447;-48
2021/09/23 12:00:34;;;;;;;5.37;3.40;;;20.10;99.90;;;;;;5034027;28;20459;-46
2021/09/23 12:03:00;;;;;;;6.03;3.00;;;20.20;99.90;;;;;;5033847;28;20491;-45
2021/09/23 12:05:31;;;;;;;3.37;2.20;;;20.30;99.90;;;;;;5033951;28;20479;-43
2021/09/23 12:08:06;;;;;;;3.27;2.57;;;20.30;99.90;;;;;;5033796;28;20506;-43
2021/09/23 12:10:33;;;;;;;3.07;2.50;;;20.30;99.90;;;;;;5034239;28;20424;-45
2021/09/23 12:13:02;;;;;;;2.77;2.10;;;20.30;99.90;;;;;;5033633;28;20558;-47
2021/09/23 12:15:30;;;;;;;2.37;2.07;;;20.30;99.90;;;;;;5034169;28;20487;-44
2021/09/23 12:17:59;;;;;;;2.70;2.10;;;20.30;99.90;;;;;;5034704;28;20924;-45
2021/09/23 12:20:43;;;;;;;6.67;2.40;;;20.30;99.90;;;;;;5033565;28;20453;-46
2021/09/23 12:23:25;;;;;;;2.90;2.40;;;20.40;99.90;;;;;;5033594;28;20523;-48
2021/09/23 12:26:17;;;;;;;8.73;1.87;;;20.40;99.90;;;;;;5033502;28;20526;-43
2021/09/23 12:28:53;;;;;;;5.80;2.90;;;20.30;99.90;;;;;;5033911;28;20448;-44
2021/09/23 12:31:39;;;;;;;5.43;2.83;;;20.20;99.90;;;;;;5034050;28;20432;-47
2021/09/23 12:34:08;;;;;;;3.97;2.40;;;20.10;99.90;;;;;;5033273;28;20487;-45
2021/09/23 12:36:39;;;;;;;2.70;1.90;;;20.10;99.90;;;;;;5033737;28;20452;-44
2021/09/23 12:39:17;;;;;;;3.70;2.20;;;20.20;99.90;;;;;;5033882;28;20460;-47